Time;durP1;ratioP1;P1;durP2;ratioP2;P2;SDS_P1;SDS_P2;PMS_P1;PMS_P2;Temp;Humidity;BMP_temperature;BMP_pressure;BME280_temperature;BME280_humidity;BME280_pressure;Samples;Min_cycle;Max_cycle;Signal;HPM_P1;HPM_P2
2022/05/26 00:00:33;;;;;;;11.05;2.13;;;;;;;10.42;91.71;100806.16;5046197;28;20032;-75
2022/05/26 00:02:59;;;;;;;7.97;1.90;;;;;;;10.37;91.82;100804.19;5049851;28;20036;-75
2022/05/26 00:05:25;;;;;;;14.05;1.85;;;;;;;10.34;92.15;100803.84;5029591;28;20033;-74
2022/05/26 00:07:50;;;;;;;7.00;1.40;;;;;;;10.22;92.28;100793.88;5041445;28;20036;-72
2022/05/26 00:10:18;;;;;;;11.10;1.60;;;;;;;10.23;92.28;100803.69;5040716;28;20082;-73
2022/05/26 00:12:44;;;;;;;8.95;1.55;;;;;;;10.16;92.45;100803.06;5042415;28;20033;-76
2022/05/26 00:15:10;;;;;;;9.07;1.60;;;;;;;10.14;91.94;100805.22;5040902;28;20441;-74
2022/05/26 00:17:36;;;;;;;4.20;1.00;;;;;;;10.06;92.01;100806.50;5052010;28;20083;-74
2022/05/26 00:20:04;;;;;;;5.28;1.45;;;;;;;10.02;92.42;100801.81;5037968;28;20767;-74
2022/05/26 00:22:30;;;;;;;6.53;1.45;;;;;;;10.03;92.48;100803.44;5031454;28;20382;-74
2022/05/26 00:24:55;;;;;;;6.40;1.50;;;;;;;10.03;92.72;100809.75;5029754;28;20755;-73
2022/05/26 00:27:21;;;;;;;10.00;1.83;;;;;;;10.00;92.40;100806.69;5041372;28;20042;-74
2022/05/26 00:29:47;;;;;;;8.57;2.08;;;;;;;9.94;92.39;100812.09;5046746;28;20032;-74
2022/05/26 00:32:12;;;;;;;4.90;1.25;;;;;;;9.79;92.70;100790.84;5021074;28;20108;-73
2022/05/26 00:34:38;;;;;;;7.80;1.42;;;;;;;9.76;93.15;100794.06;5025168;28;20108;-72
2022/05/26 00:37:08;;;;;;;13.20;2.08;;;;;;;9.87;92.94;100816.91;5040162;28;20037;-73
2022/05/26 00:39:34;;;;;;;6.45;1.50;;;;;;;9.86;93.29;100814.44;5056474;28;20028;-72
2022/05/26 00:42:03;;;;;;;8.40;1.77;;;;;;;9.84;93.47;100817.41;5048017;28;20058;-75
2022/05/26 00:44:29;;;;;;;5.35;1.58;;;;;;;9.80;93.57;100816.25;5059657;28;20028;-74
2022/05/26 00:47:24;;;;;;;10.20;1.90;;;;;;;9.73;93.43;100801.94;5030879;28;20433;-73
2022/05/26 00:50:28;;;;;;;5.35;1.40;;;;;;;9.80;93.43;100816.25;5051862;28;20108;-72
2022/05/26 00:53:02;;;;;;;7.57;1.48;;;;;;;9.73;93.33;100810.97;5033244;28;20033;-72
2022/05/26 00:55:43;;;;;;;7.13;1.80;;;;;;;9.73;93.53;100815.59;5047159;28;20418;-73
2022/05/26 00:58:16;;;;;;;7.10;1.50;;;;;;;9.70;93.80;100818.84;5060281;28;20117;-73
2022/05/26 01:00:45;;;;;;;14.50;1.60;;;;;;;9.61;93.68;100808.34;5062936;28;20036;-75
2022/05/26 01:03:26;;;;;;;10.95;2.30;;;;;;;9.68;94.34;100818.25;5043556;28;20036;-74
2022/05/26 01:06:11;;;;;;;11.07;1.90;;;;;;;9.68;94.31;100819.09;5038268;28;20033;-76
2022/05/26 01:08:46;;;;;;;9.85;2.05;;;;;;;9.73;94.36;100821.06;5050218;28;20033;-75
2022/05/26 01:11:12;;;;;;;9.40;1.60;;;;;;;9.76;94.62;100828.75;5044520;28;20035;-74
2022/05/26 01:13:46;;;;;;;12.13;2.55;;;;;;;9.70;94.52;100821.56;5042419;28;20120;-75
2022/05/26 01:16:29;;;;;;;12.13;2.07;;;;;;;9.75;94.69;100835.28;5039517;28;20478;-73
2022/05/26 01:19:15;;;;;;;11.57;2.30;;;;;;;9.80;94.46;100827.19;5045938;28;20254;-75
2022/05/26 01:22:04;;;;;;;4.05;1.13;;;;;;;9.75;94.70;100836.13;5059150;28;20025;-73
2022/05/26 01:24:38;;;;;;;8.27;1.70;;;;;;;9.71;94.41;100837.69;5028480;28;21008;-74
2022/05/26 01:27:03;;;;;;;7.30;1.40;;;;;;;9.74;94.78;100847.31;5057247;28;20024;-74
2022/05/26 01:29:48;;;;;;;11.23;1.85;;;;;;;9.75;95.04;100843.47;5065577;28;20025;-75
2022/05/26 01:32:41;;;;;;;18.63;2.35;;;;;;;9.73;95.05;100851.94;5067479;28;20033;-74
2022/05/26 01:35:28;;;;;;;17.17;2.35;;;;;;;9.70;94.82;100848.88;5069601;28;20029;-72
2022/05/26 01:38:34;;;;;;;8.43;2.00;;;;;;;9.69;94.86;100847.22;5028746;28;20039;-76
2022/05/26 01:41:27;;;;;;;12.45;1.77;;;;;;;9.68;95.18;100851.00;5056920;28;20023;-74
2022/05/26 01:44:04;;;;;;;9.02;1.90;;;;;;;9.59;96.00;100846.00;5044208;28;20020;-70
2022/05/26 01:46:39;;;;;;;14.18;1.92;;;;;;;9.56;95.45;100851.97;5052447;28;20013;-73
2022/05/26 01:49:18;;;;;;;12.40;2.95;;;;;;;9.54;95.21;100843.16;5054847;28;20035;-70
2022/05/26 01:52:07;;;;;;;7.25;1.20;;;;;;;9.46;95.55;100848.22;5058975;28;20037;-72
2022/05/26 01:54:45;;;;;;;5.05;1.15;;;;;;;9.43;95.54;100857.72;5049234;28;20470;-75
2022/05/26 01:57:22;;;;;;;3.60;1.25;;;;;;;9.32;95.34;100845.00;5053283;28;20028;-73
2022/05/26 01:59:54;;;;;;;7.65;1.77;;;;;;;9.31;95.35;100851.53;5044360;28;20208;-71
2022/05/26 02:02:25;;;;;;;4.97;1.05;;;;;;;9.25;94.99;100854.16;5060712;28;20021;-72
2022/05/26 02:05:01;;;;;;;4.80;1.00;;;;;;;9.15;95.30;100853.97;5061447;28;20048;-73
2022/05/26 02:07:35;;;;;;;6.38;1.67;;;;;;;9.09;95.33;100849.50;5060488;28;20024;-72
2022/05/26 02:10:05;;;;;;;3.03;1.23;;;;;;;9.02;95.70;100849.69;5039267;28;20152;-75
2022/05/26 02:12:40;;;;;;;7.65;1.27;;;;;;;8.97;95.88;100852.31;5040855;28;20018;-74
2022/05/26 02:15:15;;;;;;;7.05;1.80;;;;;;;8.95;95.93;100859.91;5042529;28;20159;-75
2022/05/26 02:17:50;;;;;;;5.90;1.20;;;;;;;8.95;95.95;100859.06;5031392;28;20052;-75
2022/05/26 02:20:32;;;;;;;9.10;1.58;;;;;;;8.93;95.92;100856.59;5029056;28;20360;-74
2022/05/26 02:23:11;;;;;;;7.20;1.67;;;;;;;8.87;95.61;100852.94;5039994;28;20029;-74
2022/05/26 02:25:38;;;;;;;9.52;1.88;;;;;;;8.94;96.02;100869.16;5041222;28;20095;-74
2022/05/26 02:28:05;;;;;;;8.45;1.33;;;;;;;8.93;96.01;100862.03;5018597;28;20001;-74
2022/05/26 02:30:36;;;;;;;7.68;1.42;;;;;;;8.96;96.35;100860.72;5038064;28;20022;-74
2022/05/26 02:33:06;;;;;;;7.55;1.45;;;;;;;8.98;96.29;100864.88;5040310;28;20021;-72
2022/05/26 02:35:37;;;;;;;4.90;1.52;;;;;;;8.93;96.40;100845.69;5025683;28;20021;-74
2022/05/26 02:38:10;;;;;;;7.78;1.77;;;;;;;8.96;96.58;100856.09;5022052;28;20037;-74
2022/05/26 02:40:36;;;;;;;6.50;1.45;;;;;;;8.98;96.49;100861.31;5024252;28;20084;-75
2022/05/26 02:43:10;;;;;;;6.20;1.48;;;;;;;8.96;96.50;100860.72;5024606;28;20025;-74
2022/05/26 02:45:43;;;;;;;10.70;1.70;;;;;;;8.98;96.37;100864.03;5037231;28;20017;-73
2022/05/26 02:48:36;;;;;;;9.52;2.00;;;;;;;8.95;97.19;100865.38;5038718;28;20033;-74
2022/05/26 02:51:11;;;;;;;8.45;1.52;;;;;;;9.00;96.78;100870.91;5035488;28;20036;-71
2022/05/26 02:53:58;;;;;;;4.35;1.15;;;;;;;8.97;96.94;100874.13;5021874;28;20046;-72
2022/05/26 02:56:33;;;;;;;5.97;1.25;;;;;;;8.99;97.37;100868.44;5045914;28;20036;-74
2022/05/26 02:59:28;;;;;;;12.45;2.20;;;;;;;8.95;97.38;100864.53;5035218;28;20087;-72
2022/05/26 03:01:53;;;;;;;8.55;1.60;;;;;;;8.99;97.43;100871.16;5034092;28;20031;-72
2022/05/26 03:04:34;;;;;;;9.02;1.65;;;;;;;9.07;97.42;100868.03;5037388;28;20140;-72
2022/05/26 03:07:06;;;;;;;5.90;1.40;;;;;;;9.10;97.34;100864.81;5037547;28;20021;-72
2022/05/26 03:09:36;;;;;;;8.18;1.40;;;;;;;9.22;97.14;100871.03;5036671;28;20051;-72
2022/05/26 03:12:02;;;;;;;5.97;1.55;;;;;;;9.28;97.42;100880.13;5042660;28;20082;-73
2022/05/26 03:14:27;;;;;;;10.05;1.83;;;;;;;9.30;96.91;100877.16;5026071;28;20017;-75
2022/05/26 03:16:53;;;;;;;10.57;1.90;;;;;;;9.22;97.00;100865.56;5045453;28;20075;-72
2022/05/26 03:19:20;;;;;;;12.23;1.67;;;;;;;9.17;96.83;100861.91;5045966;28;20750;-73
2022/05/26 03:21:46;;;;;;;3.47;1.10;;;;;;;9.07;96.71;100859.84;5015908;28;20044;-73
2022/05/26 03:24:12;;;;;;;6.47;2.25;;;;;;;9.01;96.80;100858.09;5041553;28;20036;-73
2022/05/26 03:26:38;;;;;;;11.43;1.85;;;;;;;8.98;97.24;100864.03;5043085;28;20017;-72
2022/05/26 03:29:05;;;;;;;11.27;1.73;;;;;;;8.95;97.14;100867.25;5042512;28;20391;-72
2022/05/26 03:31:31;;;;;;;5.32;1.42;;;;;;;8.87;97.26;100857.56;5043279;28;20012;-73
2022/05/26 03:42:11;;;;;;;5.40;1.57;;;;;;;8.93;97.45;100878.41;5031902;28;20036;-71
2022/05/26 03:44:38;;;;;;;10.70;1.65;;;;;;;9.03;97.48;100872.31;5060812;28;20262;-71
2022/05/26 03:47:04;;;;;;;5.57;1.25;;;;;;;9.12;96.90;100881.75;5060514;28;20021;-70
2022/05/26 03:49:30;;;;;;;10.63;1.67;;;;;;;9.14;97.32;100878.78;5023859;28;20031;-71
2022/05/26 03:51:57;;;;;;;8.35;2.22;;;;;;;9.22;96.89;100875.66;5013099;28;20461;-71
2022/05/26 03:54:24;;;;;;;5.85;1.70;;;;;;;9.35;96.49;100882.72;5018145;28;20027;-71
2022/05/26 03:56:49;;;;;;;9.82;1.52;;;;;;;9.55;96.37;100884.94;5042144;28;20040;-72
2022/05/26 03:59:15;;;;;;;7.40;1.45;;;;;;;9.69;95.59;100893.63;5063584;28;20021;-73
2022/05/26 04:01:41;;;;;;;7.88;1.33;;;;;;;9.77;95.32;100893.22;5073175;28;20395;-73
2022/05/26 04:04:07;;;;;;;9.63;1.30;;;;;;;9.86;94.58;100889.00;5012214;28;20067;-74
2022/05/26 04:06:33;;;;;;;6.88;1.30;;;;;;;9.97;94.40;100892.69;5042589;28;20025;-74
2022/05/26 04:08:59;;;;;;;12.65;2.03;;;;;;;10.04;93.71;100896.09;5048456;28;20098;-74
2022/05/26 04:11:25;;;;;;;5.35;1.20;;;;;;;10.06;93.80;100893.09;5042764;28;20067;-73
2022/05/26 04:13:51;;;;;;;4.05;1.02;;;;;;;10.15;93.87;100902.53;5059425;28;20016;-74
2022/05/26 04:16:18;;;;;;;4.57;0.93;;;;;;;10.20;93.52;100899.88;5059368;28;20037;-73
2022/05/26 04:18:43;;;;;;;4.88;1.02;;;;;;;10.17;93.12;100902.28;5032431;28;20033;-73
2022/05/26 04:21:14;;;;;;;4.07;1.45;;;;;;;10.10;93.09;100907.91;5022048;28;20027;-72
2022/05/26 04:23:40;;;;;;;4.05;1.00;;;;;;;9.99;92.95;100906.94;5049574;28;20101;-73
2022/05/26 04:26:07;;;;;;;6.38;1.60;;;;;;;9.95;93.32;100911.25;5067480;28;20030;-74
2022/05/26 04:28:34;;;;;;;3.92;1.05;;;;;;;10.02;93.39;100905.63;5048376;28;20050;-72
2022/05/26 04:31:00;;;;;;;7.57;1.40;;;;;;;10.13;93.08;100918.34;5022736;28;20506;-71
2022/05/26 04:33:25;;;;;;;5.93;1.35;;;;;;;10.18;92.63;100909.38;5059610;28;20025;-72
2022/05/26 04:35:52;;;;;;;5.93;1.15;;;;;;;10.29;92.94;100912.03;5024012;28;20068;-75
2022/05/26 04:38:19;;;;;;;3.85;0.90;;;;;;;10.38;92.63;100914.34;5041274;28;20021;-75
2022/05/26 04:40:45;;;;;;;6.53;1.42;;;;;;;10.53;92.18;100920.03;5050680;28;20028;-74
2022/05/26 04:43:11;;;;;;;13.90;2.38;;;;;;;10.68;91.56;100924.06;5060184;28;20033;-75
2022/05/26 04:45:37;;;;;;;5.28;1.27;;;;;;;10.79;90.94;100923.06;5046306;28;20305;-73
2022/05/26 04:48:03;;;;;;;7.28;1.27;;;;;;;10.87;90.58;100922.63;5037188;28;20013;-72
2022/05/26 04:50:28;;;;;;;5.53;1.10;;;;;;;10.95;89.64;100930.41;5005964;28;20057;-72
2022/05/26 04:52:54;;;;;;;5.32;1.67;;;;;;;10.96;89.40;100921.09;5039647;28;20032;-72
2022/05/26 04:55:21;;;;;;;9.60;1.40;;;;;;;10.95;88.84;100930.41;5027025;28;20555;-71
2022/05/26 04:57:47;;;;;;;4.63;1.63;;;;;;;10.99;88.81;100938.91;5058892;28;20067;-73
2022/05/26 05:00:16;;;;;;;13.43;1.67;;;;;;;10.86;88.86;100934.66;5040853;28;20037;-75
2022/05/26 05:02:42;;;;;;;7.57;1.52;;;;;;;10.84;89.03;100936.81;5045426;28;20025;-72
2022/05/26 05:05:09;;;;;;;4.80;1.33;;;;;;;10.93;89.20;100948.97;5044176;28;20021;-75
2022/05/26 05:07:34;;;;;;;6.40;1.20;;;;;;;11.03;88.86;100947.44;5044835;28;20033;-74
2022/05/26 05:10:06;;;;;;;9.10;1.10;;;;;;;11.12;88.53;100946.72;5028746;28;20051;-74
2022/05/26 05:12:40;;;;;;;4.78;1.08;;;;;;;11.18;87.35;100931.19;5030354;28;20101;-72
2022/05/26 05:15:57;;;;;;;8.32;1.25;;;;;;;11.23;87.16;100942.19;5049963;28;20108;-74
2022/05/26 05:18:44;;;;;;;4.22;1.38;;;;;;;11.29;87.00;100952.09;5038916;28;20032;-74
2022/05/26 05:21:17;;;;;;;9.43;1.50;;;;;;;11.35;86.76;100942.84;5040920;28;20039;-72
2022/05/26 05:23:46;;;;;;;6.55;1.23;;;;;;;11.44;86.58;100953.34;5032492;28;20021;-70
2022/05/26 05:26:16;;;;;;;7.00;1.65;;;;;;;11.50;85.83;100955.03;5057710;28;20017;-72
2022/05/26 05:28:47;;;;;;;11.82;1.90;;;;;;;11.55;85.63;100952.38;5041014;28;20028;-71
2022/05/26 05:31:19;;;;;;;7.20;1.40;;;;;;;11.56;85.73;100948.53;5061910;28;20021;-72
2022/05/26 05:34:15;;;;;;;8.80;1.45;;;;;;;11.68;85.14;100953.81;5042922;28;20016;-72
2022/05/26 05:36:42;;;;;;;15.13;1.77;;;;;;;11.72;84.86;100952.22;5052718;28;20064;-72
2022/05/26 05:39:08;;;;;;;5.72;1.30;;;;;;;11.78;84.54;100950.38;5023866;28;20033;-72
2022/05/26 05:41:35;;;;;;;12.27;1.95;;;;;;;11.77;84.48;100957.75;5007762;28;20755;-71
2022/05/26 05:44:02;;;;;;;10.30;1.70;;;;;;;11.84;84.22;100969.34;5041601;28;20028;-72
2022/05/26 05:46:34;;;;;;;9.93;1.70;;;;;;;11.91;84.51;100963.63;5042314;28;20106;-71
2022/05/26 05:49:04;;;;;;;11.30;2.20;;;;;;;11.96;84.11;100971.94;5058476;28;20021;-73
2022/05/26 05:51:31;;;;;;;10.40;1.23;;;;;;;12.00;83.43;100962.09;5065212;28;20371;-75
2022/05/26 05:53:56;;;;;;;8.63;1.58;;;;;;;12.07;83.91;100961.03;5033554;28;20036;-75
2022/05/26 05:56:22;;;;;;;8.50;1.42;;;;;;;12.25;83.65;100968.84;5065005;28;20017;-76
2022/05/26 05:58:47;;;;;;;5.80;1.05;;;;;;;12.40;82.45;100962.63;5046669;28;20089;-76
2022/05/26 06:01:13;;;;;;;10.57;1.92;;;;;;;12.63;82.25;100975.13;5047053;28;20040;-75
2022/05/26 06:03:38;;;;;;;5.20;1.05;;;;;;;12.79;81.41;100973.28;5032177;28;20113;-76
2022/05/26 06:06:07;;;;;;;2.45;0.98;;;;;;;12.97;80.62;100985.69;5032431;28;20040;-74
2022/05/26 06:08:33;;;;;;;11.90;1.40;;;;;;;13.17;80.27;100984.94;5049447;28;20041;-75
2022/05/26 06:10:58;;;;;;;7.35;1.60;;;;;;;13.44;79.05;100984.75;5066466;28;20029;-75
2022/05/26 06:13:24;;;;;;;10.02;1.40;;;;;;;13.57;78.50;100986.16;5033103;28;20064;-76
2022/05/26 06:15:50;;;;;;;6.75;1.23;;;;;;;13.73;78.14;100986.19;5037549;28;20097;-76
2022/05/26 06:18:18;;;;;;;5.45;1.20;;;;;;;13.87;77.13;100983.72;5050204;28;20056;-76
2022/05/26 06:20:44;;;;;;;9.32;1.52;;;;;;;14.04;77.05;100989.75;5049824;28;20032;-75
2022/05/26 06:23:10;;;;;;;7.28;1.20;;;;;;;14.22;76.30;100987.53;5054619;28;20032;-77
2022/05/26 06:25:35;;;;;;;6.25;1.05;;;;;;;14.30;75.59;100990.56;5034613;28;20039;-76
2022/05/26 06:30:48;;;;;;;6.03;0.90;;;;;;;14.37;74.76;101000.44;5049597;28;20063;-76
2022/05/26 06:38:44;;;;;;;6.93;0.73;;;;;;;14.37;75.62;101012.28;5046371;28;20052;-76
2022/05/26 06:43:58;;;;;;;4.10;0.68;;;;;;;14.59;74.30;101019.41;5067115;28;20067;-76
2022/05/26 06:46:24;;;;;;;5.47;1.15;;;;;;;14.65;74.04;101024.66;5069911;28;20383;-75
2022/05/26 06:48:49;;;;;;;6.13;1.30;;;;;;;14.62;73.98;101027.16;5029276;28;20021;-76
2022/05/26 06:51:15;;;;;;;7.13;1.33;;;;;;;14.68;73.81;101025.22;5018937;28;20037;-75
2022/05/26 06:53:41;;;;;;;6.90;1.27;;;;;;;14.69;73.37;101030.44;5051396;28;20082;-75
2022/05/26 06:56:08;;;;;;;3.65;0.85;;;;;;;14.72;72.82;101029.88;5045072;28;20048;-74
2022/05/26 06:58:34;;;;;;;5.85;1.13;;;;;;;15.01;72.95;101041.06;5046685;28;20037;-76
2022/05/26 07:00:59;;;;;;;5.10;0.98;;;;;;;15.27;71.85;101031.88;5064216;28;20399;-74
2022/05/26 07:03:25;;;;;;;6.75;0.90;;;;;;;15.46;71.24;101038.41;5017875;28;20029;-74
2022/05/26 07:05:52;;;;;;;7.95;1.13;;;;;;;15.64;70.18;101036.09;5050083;28;20044;-74
2022/05/26 07:08:22;;;;;;;5.50;1.10;;;;;;;15.70;69.71;101037.69;5038956;28;20101;-74
2022/05/26 07:10:50;;;;;;;4.05;0.88;;;;;;;15.65;68.95;101046.84;5044356;28;20029;-75
2022/05/26 07:13:15;;;;;;;2.97;0.70;;;;;;;15.62;68.92;101046.56;5008213;28;20044;-74
2022/05/26 07:15:42;;;;;;;3.20;0.70;;;;;;;15.60;68.62;101051.56;5040601;28;20041;-74
2022/05/26 07:18:09;;;;;;;4.07;0.70;;;;;;;15.71;66.98;101058.63;5020248;28;20060;-74
2022/05/26 07:20:39;;;;;;;8.95;0.95;;;;;;;15.74;66.12;101044.31;5054464;28;20056;-74
2022/05/26 07:23:08;;;;;;;3.53;0.60;;;;;;;15.95;66.35;101055.22;5070351;28;20036;-74
2022/05/26 07:25:34;;;;;;;5.07;0.90;;;;;;;16.20;65.54;101052.25;5037700;28;20043;-75
2022/05/26 07:28:00;;;;;;;4.65;0.85;;;;;;;16.42;64.46;101053.72;5073650;28;20037;-74
2022/05/26 07:30:27;;;;;;;2.88;0.70;;;;;;;16.80;63.28;101059.41;5036817;28;20029;-74
2022/05/26 07:32:53;;;;;;;4.50;0.77;;;;;;;16.95;62.88;101071.44;5043244;28;20037;-74
2022/05/26 07:35:18;;;;;;;2.50;0.90;;;;;;;17.09;62.17;101061.34;5037327;28;20035;-74
2022/05/26 07:43:16;;;;;;;4.97;0.73;;;;;;;17.14;60.76;101079.78;5071505;28;20038;-75
2022/05/26 07:46:07;;;;;;;7.72;0.70;;;;;;;17.00;61.90;101085.22;5046133;28;20025;-75
2022/05/26 07:48:33;;;;;;;4.03;0.68;;;;;;;16.78;61.35;101077.38;5048599;28;20031;-74
2022/05/26 07:50:58;;;;;;;5.57;0.95;;;;;;;16.73;60.94;101081.88;5056973;28;20119;-75
2022/05/26 07:53:24;;;;;;;1.23;0.50;;;;;;;16.82;62.11;101057.19;5070359;28;20872;-74
2022/05/26 07:55:50;;;;;;;6.75;0.60;;;;;;;17.10;60.87;101065.75;5034989;28;20033;-74
2022/05/26 07:58:16;;;;;;;2.92;0.90;;;;;;;17.24;60.72;101072.22;5035373;28;20025;-73
2022/05/26 08:00:41;;;;;;;3.90;0.70;;;;;;;17.53;60.42;101076.81;5029008;28;20034;-72
2022/05/26 08:03:07;;;;;;;2.42;0.60;;;;;;;17.65;59.61;101078.31;5024543;28;20029;-75
2022/05/26 08:05:34;;;;;;;3.17;0.90;;;;;;;17.41;59.60;101084.72;5053393;28;20303;-73
2022/05/26 08:07:59;;;;;;;2.88;0.85;;;;;;;17.32;60.77;101086.47;5035360;28;20052;-74
2022/05/26 08:10:25;;;;;;;5.93;0.90;;;;;;;17.46;60.21;101084.63;5052367;28;20055;-74
2022/05/26 08:12:51;;;;;;;4.22;0.68;;;;;;;17.63;59.91;101082.19;5032381;28;21230;-73
2022/05/26 08:15:17;;;;;;;2.08;0.45;;;;;;;17.68;59.17;101091.53;5037288;28;20070;-73
2022/05/26 08:17:43;;;;;;;2.90;0.65;;;;;;;17.53;59.86;101092.59;5043364;28;20080;-74
2022/05/26 08:20:10;;;;;;;4.43;0.60;;;;;;;17.57;59.34;101094.44;5052160;28;20050;-74
2022/05/26 08:22:36;;;;;;;3.45;0.68;;;;;;;17.75;59.64;101111.38;5051883;28;20067;-74
2022/05/26 08:25:02;;;;;;;5.30;0.55;;;;;;;17.35;59.28;101108.03;5054426;28;20040;-74
2022/05/26 08:27:28;;;;;;;4.95;0.73;;;;;;;17.00;61.28;101113.66;5052500;28;20093;-74
2022/05/26 08:29:54;;;;;;;5.25;0.88;;;;;;;16.93;62.46;101114.00;5071298;28;20048;-73
2022/05/26 08:32:21;;;;;;;3.53;0.50;;;;;;;17.07;62.51;101110.56;5052288;28;20016;-74
2022/05/26 08:34:47;;;;;;;3.20;0.60;;;;;;;17.02;61.25;101116.94;5048915;28;20037;-74
2022/05/26 08:37:20;;;;;;;12.40;0.93;;;;;;;17.22;60.39;101115.09;5052669;28;20040;-75
2022/05/26 08:39:46;;;;;;;2.25;0.57;;;;;;;17.19;60.03;101122.00;5076481;28;20017;-73
2022/05/26 08:42:25;;;;;;;3.83;0.47;;;;;;;17.49;60.59;101117.22;5069868;28;20025;-73
2022/05/26 08:44:55;;;;;;;3.97;0.55;;;;;;;17.69;58.57;101112.56;5056965;28;20029;-74
2022/05/26 08:47:25;;;;;;;3.58;0.63;;;;;;;18.02;59.27;101109.91;5050838;28;20061;-73
2022/05/26 08:50:07;;;;;;;3.13;0.80;;;;;;;18.75;57.95;101121.44;5075499;28;20043;-73
2022/05/26 08:53:13;;;;;;;4.97;0.70;;;;;;;19.45;54.76;101122.34;5065007;28;20490;-74
2022/05/26 08:55:50;;;;;;;4.28;1.25;;;;;;;19.99;53.86;101126.22;5041685;28;20041;-74
2022/05/26 08:58:19;;;;;;;1.23;0.60;;;;;;;20.16;52.85;101131.06;5045862;28;20025;-74
2022/05/26 09:00:47;;;;;;;2.05;0.63;;;;;;;20.30;52.80;101133.81;5064536;28;20029;-74
2022/05/26 09:03:34;;;;;;;2.42;0.55;;;;;;;20.39;52.29;101140.25;5074842;28;20032;-74
2022/05/26 09:06:05;;;;;;;3.25;0.60;;;;;;;20.27;52.08;101147.50;5069608;28;20028;-73
2022/05/26 09:14:19;;;;;;;2.15;1.20;;;;;;;18.98;54.97;101142.69;5064091;28;20028;-74
2022/05/26 09:16:45;;;;;;;3.28;0.77;;;;;;;18.73;56.24;101141.13;5066628;28;20017;-75
2022/05/26 09:19:17;;;;;;;5.53;1.02;;;;;;;18.67;56.83;101145.97;5039131;28;20028;-73
2022/05/26 09:21:46;;;;;;;2.92;0.65;;;;;;;18.73;55.81;101143.09;5049479;28;20021;-74
2022/05/26 09:24:18;;;;;;;2.85;0.43;;;;;;;18.71;56.23;101140.63;5071789;28;20050;-74
2022/05/26 09:26:52;;;;;;;1.95;0.60;;;;;;;18.82;56.43;101152.34;5068932;28;20032;-74
2022/05/26 09:29:23;;;;;;;4.93;0.50;;;;;;;18.69;56.54;101139.28;5065325;28;20069;-73
2022/05/26 09:31:50;;;;;;;4.20;0.75;;;;;;;18.72;56.77;101138.69;5052323;28;20016;-75
2022/05/26 09:34:17;;;;;;;4.97;0.63;;;;;;;18.84;57.67;101136.25;5049778;28;20013;-75
2022/05/26 09:36:48;;;;;;;2.38;0.60;;;;;;;19.10;56.33;101139.41;5067143;28;20043;-75
2022/05/26 09:39:17;;;;;;;3.30;0.80;;;;;;;19.19;56.82;101143.09;5065528;28;20033;-74
2022/05/26 09:41:57;;;;;;;2.85;0.65;;;;;;;19.44;55.84;101142.91;5065594;28;20047;-75
2022/05/26 09:44:59;;;;;;;3.75;0.70;;;;;;;19.53;55.78;101141.06;5068601;28;20020;-75
2022/05/26 09:47:39;;;;;;;7.05;0.75;;;;;;;19.59;55.01;101145.34;5070714;28;20036;-74
2022/05/26 09:50:13;;;;;;;2.05;0.40;;;;;;;19.86;54.82;101132.63;5070450;28;20036;-74
2022/05/26 09:52:40;;;;;;;1.83;0.50;;;;;;;20.26;52.93;101138.34;5067690;28;20036;-74
2022/05/26 09:55:26;;;;;;;1.85;0.55;;;;;;;20.53;53.25;101136.56;5056387;28;20039;-75
2022/05/26 09:58:28;;;;;;;2.45;0.77;;;;;;;21.34;50.03;101149.47;5066908;28;20043;-76
2022/05/26 10:01:14;;;;;;;5.18;0.93;;;;;;;21.59;48.70;101147.94;5072656;28;20382;-75
2022/05/26 10:04:04;;;;;;;1.67;0.75;;;;;;;21.43;50.17;101144.75;5054820;28;20025;-75
2022/05/26 10:06:42;;;;;;;5.10;0.95;;;;;;;21.31;50.08;101141.78;5054553;28;20052;-73
2022/05/26 10:09:16;;;;;;;0.85;0.50;;;;;;;20.90;50.87;101142.91;5070191;28;20040;-74
2022/05/26 10:12:04;;;;;;;1.83;0.57;;;;;;;20.90;51.04;101148.47;5073892;28;20024;-75
2022/05/26 10:15:11;;;;;;;3.33;0.73;;;;;;;20.54;51.63;101143.78;5072718;28;20017;-74
2022/05/26 10:17:58;;;;;;;1.65;0.52;;;;;;;20.33;52.97;101144.28;5052327;28;20167;-74
2022/05/26 10:20:55;;;;;;;2.42;0.50;;;;;;;20.42;52.94;101143.53;5069154;28;20034;-75
2022/05/26 10:23:45;;;;;;;5.00;0.70;;;;;;;20.07;53.54;101138.50;5051415;28;20038;-73
2022/05/26 10:26:22;;;;;;;3.22;0.75;;;;;;;19.98;53.46;101135.66;5072215;28;20021;-74
2022/05/26 10:29:06;;;;;;;4.18;0.60;;;;;;;20.20;53.08;101142.38;5070779;28;20025;-74
2022/05/26 10:32:13;;;;;;;1.55;0.55;;;;;;;20.10;53.17;101148.19;5054950;28;20017;-74
2022/05/26 10:35:00;;;;;;;5.22;0.90;;;;;;;19.91;53.73;101151.91;5069221;28;20039;-74
2022/05/26 10:38:03;;;;;;;3.58;0.82;;;;;;;19.95;54.12;101157.69;5069273;28;20017;-74
2022/05/26 10:41:12;;;;;;;4.05;0.70;;;;;;;19.55;53.74;101149.88;5067185;28;20135;-76
2022/05/26 10:43:47;;;;;;;6.15;1.52;;;;;;;19.23;55.11;101143.31;5048811;28;20029;-74
2022/05/26 10:46:13;;;;;;;5.32;0.70;;;;;;;19.28;56.24;101143.22;5065056;28;20037;-76
2022/05/26 10:49:01;;;;;;;4.45;0.95;;;;;;;19.33;56.04;101148.66;5038366;28;20040;-74
2022/05/26 10:51:38;;;;;;;2.15;0.63;;;;;;;19.27;55.29;101144.34;5063808;28;20074;-74
2022/05/26 10:54:08;;;;;;;1.23;0.45;;;;;;;19.20;56.20;101149.47;5066152;28;20453;-74
2022/05/26 10:56:47;;;;;;;2.22;0.63;;;;;;;19.27;55.62;101154.59;5066395;28;20804;-75
2022/05/26 10:59:32;;;;;;;1.25;0.90;;;;;;;19.42;55.71;101159.03;5054263;28;20025;-75
2022/05/26 11:01:58;;;;;;;1.17;0.57;;;;;;;19.74;54.87;101154.47;5066699;28;20021;-74
2022/05/26 11:04:42;;;;;;;3.55;0.65;;;;;;;20.08;54.08;101150.44;5065917;28;20459;-75
2022/05/26 11:07:44;;;;;;;1.83;0.70;;;;;;;20.36;52.75;101157.53;5065831;28;20036;-75
2022/05/26 11:10:24;;;;;;;2.03;0.50;;;;;;;20.24;53.58;101157.28;5064488;28;20056;-75
2022/05/26 11:13:04;;;;;;;1.60;0.40;;;;;;;20.26;52.66;101155.00;5047108;28;20056;-74
2022/05/26 11:18:46;;;;;;;2.08;0.70;;;;;;;20.04;53.58;101141.91;5062172;28;20024;-73
2022/05/26 11:21:18;;;;;;;5.97;0.57;;;;;;;19.79;52.96;101148.88;5061007;28;20033;-75
2022/05/26 11:23:43;;;;;;;3.03;0.60;;;;;;;19.55;54.48;101152.66;5059767;28;20091;-73
2022/05/26 11:26:37;;;;;;;2.58;0.70;;;;;;;19.32;55.15;101152.56;5013072;28;20033;-75
2022/05/26 11:29:13;;;;;;;3.22;0.70;;;;;;;19.21;55.24;101142.78;5059653;28;20029;-73
2022/05/26 11:37:36;;;;;;;4.72;0.90;;;;;;;19.21;56.48;101151.13;5062235;28;20102;-72
2022/05/26 11:40:07;;;;;;;4.32;0.70;;;;;;;19.48;55.75;101144.75;5050433;28;20013;-74
2022/05/26 11:42:35;;;;;;;3.40;0.70;;;;;;;19.48;55.43;101149.50;5047827;28;20016;-75
2022/05/26 11:45:21;;;;;;;9.73;1.52;;;;;;;19.28;56.07;101154.31;5062807;28;20027;-74
2022/05/26 11:48:00;;;;;;;3.00;0.75;;;;;;;19.21;56.39;101156.66;5063424;28;20012;-74
2022/05/26 11:50:43;;;;;;;2.47;0.85;;;;;;;19.24;57.11;101144.94;5050965;28;20383;-75
2022/05/26 11:53:32;;;;;;;4.30;0.80;;;;;;;19.16;56.19;101140.13;5061203;28;20755;-74
2022/05/26 11:56:05;;;;;;;4.22;0.65;;;;;;;18.59;58.56;101154.97;5052937;28;20059;-76
2022/05/26 11:58:41;;;;;;;5.00;0.80;;;;;;;18.14;59.58;101140.72;5067381;28;20570;-75
2022/05/26 12:01:19;;;;;;;7.30;1.13;;;;;;;18.12;60.27;101142.94;5062121;28;20071;-75
2022/05/26 12:03:50;;;;;;;4.95;0.63;;;;;;;18.27;59.61;101131.66;5051649;28;20033;-74
2022/05/26 12:06:33;;;;;;;2.95;0.80;;;;;;;18.38;59.96;101145.34;5062756;28;20028;-75
2022/05/26 12:09:11;;;;;;;4.63;0.80;;;;;;;18.43;59.85;101142.50;5065271;28;20053;-75
2022/05/26 12:12:27;;;;;;;4.63;0.80;;;;;;;18.60;59.62;101136.38;5062977;28;20079;-74
2022/05/26 12:15:09;;;;;;;2.75;0.70;;;;;;;18.92;59.15;101146.66;4979746;28;20509;-75
2022/05/26 12:18:07;;;;;;;2.38;0.80;;;;;;;18.89;58.72;101149.22;4964355;28;20167;-74
2022/05/26 12:57:42;;;;;;;4.78;1.02;;;;;;;18.37;60.05;101155.59;1339095;22;20857;-75
2022/05/26 13:00:25;;;;;;;4.28;0.93;;;;;;;18.29;59.88;101151.53;5058596;28;20053;-75
2022/05/26 13:03:36;;;;;;;4.20;0.80;;;;;;;18.45;59.74;101145.78;5058535;28;20033;-76
2022/05/26 13:06:09;;;;;;;1.80;0.80;;;;;;;18.73;58.99;101134.78;5064462;28;20036;-74
2022/05/26 13:08:56;;;;;;;3.08;0.75;;;;;;;19.76;55.60;101150.28;5057786;28;20071;-75
2022/05/26 13:11:32;;;;;;;4.72;1.15;;;;;;;20.51;53.59;101148.00;5058914;28;20025;-75